Time;durP1;ratioP1;P1;durP2;ratioP2;P2;SDS_P1;SDS_P2;PMS_P1;PMS_P2;Temp;Humidity;BMP_temperature;BMP_pressure;BME280_temperature;BME280_humidity;BME280_pressure;Samples;Min_cycle;Max_cycle;Signal;HPM_P1;HPM_P2
2022/01/18 00:01:27;;;;;;;;;33.50;31.75;;;;;6.46;68.34;103424.78;5035011;28;45806;-83
2022/01/18 00:03:54;;;;;;;;;41.25;33.75;;;;;6.14;68.65;103373.31;5048922;28;46573;-75
2022/01/18 00:06:19;;;;;;;;;32.75;29.75;;;;;6.48;68.69;103422.28;5049407;28;45867;-78
2022/01/18 00:08:45;;;;;;;;;38.25;28.25;;;;;6.34;68.13;103398.00;5050341;28;45528;-81
2022/01/18 00:11:17;;;;;;;;;39.00;31.75;;;;;6.16;68.44;103375.22;5051305;28;45536;-81
2022/01/18 00:13:49;;;;;;;;;42.00;33.50;;;;;6.26;68.53;103402.69;5051775;28;46141;-78
2022/01/18 00:16:27;;;;;;;;;32.00;29.00;;;;;6.41;68.17;103414.88;5052121;28;45828;-77
2022/01/18 00:18:59;;;;;;;;;43.50;35.00;;;;;6.24;67.99;103383.53;5050453;28;45895;-76
2022/01/18 00:21:34;;;;;;;;;34.50;31.50;;;;;5.96;67.96;103339.25;5050227;28;45737;-81
2022/01/18 00:24:00;;;;;;;;;40.50;31.25;;;;;6.44;68.41;103418.56;5045486;28;46218;-80
2022/01/18 00:26:29;;;;;;;;;40.00;34.00;;;;;5.45;68.40;103234.63;5046837;28;45441;-78
2022/01/18 00:29:03;;;;;;;;;33.75;30.00;;;;;5.95;68.64;103309.72;5050092;28;45549;-77
2022/01/18 00:34:13;;;;;;;;;42.25;33.50;;;;;6.01;68.24;103322.22;5048895;28;45611;-79
2022/01/18 00:39:17;;;;;;;;;46.75;34.75;;;;;6.52;68.11;103409.53;5049977;28;45563;-81
2022/01/18 00:41:43;;;;;;;;;38.25;32.25;;;;;6.47;67.88;103405.75;5049318;28;45565;-76
2022/01/18 00:44:10;;;;;;;;;47.00;35.25;;;;;6.31;68.19;103364.88;5048472;28;45740;-78
2022/01/18 00:46:36;;;;;;;;;37.50;32.75;;;;;6.06;68.01;103323.41;5049177;28;45727;-76
2022/01/18 00:49:03;;;;;;;;;39.00;33.00;;;;;5.77;68.10;103298.16;5048041;28;45737;-77
2022/01/18 00:51:33;;;;;;;;;35.75;29.00;;;;;6.37;68.53;103401.66;5050605;28;45600;-79
2022/01/18 00:54:00;;;;;;;;;47.25;35.00;;;;;6.34;68.08;103391.09;5039783;28;48073;-74
2022/01/18 00:56:29;;;;;;;;;37.50;32.75;;;;;5.74;68.36;103301.47;5030569;28;45886;-76
2022/01/18 00:58:55;;;;;;;;;47.50;34.50;;;;;6.33;68.14;103417.00;5049394;28;45399;-78
2022/01/18 01:01:24;;;;;;;;;42.25;34.25;;;;;6.32;68.86;103397.00;5049739;28;45593;-78
2022/01/18 01:03:52;;;;;;;;;35.75;32.75;;;;;6.07;68.20;103371.13;5048195;28;46443;-77
2022/01/18 01:06:18;;;;;;;;;42.00;32.25;;;;;6.25;68.94;103385.31;5042327;28;45746;-76
2022/01/18 01:08:44;;;;;;;;;36.75;32.25;;;;;5.96;68.97;103321.06;5055368;28;45869;-79
2022/01/18 01:11:10;;;;;;;;;47.50;35.75;;;;;5.78;68.46;103307.75;5061114;28;45676;-78
2022/01/18 01:13:43;;;;;;;;;41.75;34.25;;;;;5.89;68.64;103319.72;5056825;28;46378;-79
2022/01/18 01:18:59;;;;;;;;;42.00;33.75;;;;;5.66;68.39;103289.66;5051784;28;45590;-77
2022/01/18 01:32:50;;;;;;;;;39.00;32.25;;;;;5.95;68.63;103353.94;5042928;28;46044;-84
2022/01/18 01:35:16;;;;;;;;;37.75;30.25;;;;;6.18;68.45;103398.75;5049064;28;45552;-82
2022/01/18 01:43:37;;;;;;;;;39.00;31.50;;;;;5.35;69.43;103258.25;5052799;28;45510;-79
2022/01/18 01:46:04;;;;;;;;;49.25;36.25;;;;;6.01;68.11;103368.16;5050511;28;45730;-75
2022/01/18 01:48:29;;;;;;;;;37.75;32.25;;;;;5.20;68.71;103246.88;5031905;28;46080;-78
2022/01/18 01:51:04;;;;;;;;;42.75;34.25;;;;;5.50;68.17;103323.28;5032502;28;46221;-75
2022/01/18 01:53:31;;;;;;;;;43.25;34.75;;;;;5.71;69.12;103367.97;5051378;28;45580;-81
2022/01/18 01:55:58;;;;;;;;;38.00;31.50;;;;;5.32;69.26;103318.72;5051108;28;45990;-80
2022/01/18 01:58:26;;;;;;;;;37.75;30.00;;;;;5.50;69.39;103368.41;5050088;28;45760;-79
2022/01/18 02:01:05;;;;;;;;;39.00;32.75;;;;;5.10;69.89;103305.13;5049669;28;45799;-81
2022/01/18 02:03:30;;;;;;;;;40.50;32.00;;;;;5.63;70.04;103426.41;5050165;28;46143;-78
2022/01/18 02:05:56;;;;;;;;;43.50;33.50;;;;;5.08;70.02;103353.50;5030754;28;47915;-74
2022/01/18 02:08:22;;;;;;;;;40.50;32.75;;;;;5.27;70.19;103405.88;5049324;28;45977;-77
2022/01/18 02:10:47;;;;;;;;;39.25;32.50;;;;;4.50;70.87;103288.16;5049378;28;45869;-78
2022/01/18 02:13:14;;;;;;;;;38.00;31.50;;;;;4.78;70.99;103331.56;5049234;28;45949;-80
2022/01/18 02:16:10;;;;;;;;;38.00;32.25;;;;;5.02;71.20;103407.63;5048471;28;46121;-75
2022/01/18 02:23:55;;;;;;;;;32.50;29.25;;;;;4.57;71.65;103347.47;5051489;28;45866;-74
2022/01/18 02:26:21;;;;;;;;;43.50;33.50;;;;;4.33;71.43;103320.75;5051946;28;45433;-74
2022/01/18 02:28:47;;;;;;;;;34.75;31.00;;;;;4.96;71.20;103420.19;5050410;28;46159;-74
2022/01/18 02:31:12;;;;;;;;;39.25;32.75;;;;;4.93;71.79;103407.91;5050357;28;46016;-75
2022/01/18 02:33:38;;;;;;;;;49.50;37.25;;;;;4.90;71.76;103423.28;5050602;28;45772;-76
2022/01/18 02:36:08;;;;;;;;;40.50;33.75;;;;;4.33;72.09;103325.03;5050543;28;45505;-79
2022/01/18 02:38:33;;;;;;;;;38.75;32.00;;;;;4.91;72.20;103411.19;5053923;28;45597;-80
2022/01/18 02:40:59;;;;;;;;;39.00;32.00;;;;;4.27;71.79;103293.47;5050107;28;45600;-77
2022/01/18 02:46:10;;;;;;;;;44.25;31.00;;;;;4.78;71.98;103399.97;5049324;28;45565;-80
2022/01/18 02:48:36;;;;;;;;;41.75;31.75;;;;;4.80;72.42;103392.28;5049082;28;45903;-77
2022/01/18 02:51:01;;;;;;;;;28.75;26.50;;;;;3.86;72.71;103263.00;5031251;28;46057;-80
2022/01/18 02:53:27;;;;;;;;;42.75;29.75;;;;;3.75;72.01;103257.97;5049160;28;45629;-80
2022/01/18 02:55:55;;;;;;;;;37.25;30.25;;;;;4.59;73.09;103381.34;5049699;28;47005;-79
2022/01/18 02:58:26;;;;;;;;;29.25;25.50;;;;;4.32;72.87;103323.22;5050804;28;45865;-80
2022/01/18 03:03:35;;;;;;;;;36.75;28.50;;;;;4.47;72.40;103309.63;5049381;28;45435;-77
2022/01/18 03:06:03;;;;;;;;;32.25;26.75;;;;;4.85;72.39;103346.75;5048887;28;46574;-76
2022/01/18 03:08:29;;;;;;;;;35.75;28.00;;;;;4.73;72.43;103322.56;5030428;28;45825;-78
2022/01/18 03:10:56;;;;;;;;;32.00;26.50;;;;;5.19;72.23;103373.28;5048634;28;45459;-77
2022/01/18 03:13:22;;;;;;;;;32.00;26.75;;;;;5.05;72.21;103317.84;5048872;28;45512;-78
2022/01/18 03:15:48;;;;;;;;;34.50;31.50;;;;;4.50;71.48;103214.59;5048584;28;46047;-78
2022/01/18 03:18:14;;;;;;;;;29.00;26.75;;;;;4.94;71.00;103263.38;5047955;28;46107;-78
2022/01/18 03:20:39;;;;;;;;;36.00;25.25;;;;;5.21;71.30;103285.03;5048309;28;45742;-79
2022/01/18 03:23:11;;;;;;;;;26.50;23.75;;;;;5.27;71.27;103294.13;5048498;28;45636;-77
2022/01/18 03:28:07;;;;;;;;;31.50;24.75;;;;;5.04;69.95;103209.50;5051680;28;45685;-78
2022/01/18 03:30:39;;;;;;;;;30.00;26.00;;;;;5.83;69.86;103352.25;5051591;28;46083;-75
2022/01/18 03:33:11;;;;;;;;;24.25;22.50;;;;;5.09;70.23;103246.19;5051566;28;46121;-79
2022/01/18 03:35:38;;;;;;;;;37.25;29.50;;;;;5.29;70.36;103278.63;5051594;28;45478;-78
2022/01/18 03:38:04;;;;;;;;;32.00;28.25;;;;;5.19;70.58;103284.03;5051313;28;45472;-76
2022/01/18 03:40:30;;;;;;;;;37.00;28.50;;;;;4.99;69.94;103244.69;5051636;28;45533;-75
2022/01/18 03:42:58;;;;;;;;;38.75;28.00;;;;;5.57;70.41;103307.28;5051905;28;45923;-74
2022/01/18 03:45:31;;;;;;;;;37.00;30.50;;;;;5.07;69.63;103207.09;5032898;28;47945;-74
2022/01/18 03:48:00;;;;;;;;;27.75;25.00;;;;;5.69;70.34;103330.56;5051531;28;46063;-74
2022/01/18 03:50:26;;;;;;;;;33.00;24.25;;;;;5.48;69.64;103263.44;5051593;28;45935;-74
2022/01/18 03:52:53;;;;;;;;;27.75;23.75;;;;;6.02;69.25;103343.94;5051464;28;46026;-78
2022/01/18 03:55:20;;;;;;;;;36.00;28.50;;;;;5.41;69.46;103237.84;5056104;28;45933;-77
2022/01/18 03:57:46;;;;;;;;;35.00;26.75;;;;;6.08;69.23;103339.13;5051915;28;45832;-80
2022/01/18 04:00:16;;;;;;;;;32.75;26.25;;;;;5.32;69.35;103200.88;5033414;28;45496;-80
2022/01/18 04:02:42;;;;;;;;;31.75;26.25;;;;;6.11;69.27;103361.00;5033691;28;46143;-79
2022/01/18 04:05:08;;;;;;;;;35.75;31.75;;;;;5.97;69.42;103343.66;5033146;28;45593;-79
2022/01/18 04:07:34;;;;;;;;;32.00;27.00;;;;;5.57;69.15;103244.00;5032890;28;45621;-80
2022/01/18 04:09:59;;;;;;;;;33.50;28.75;;;;;6.11;68.97;103348.00;5051037;28;45724;-78
2022/01/18 04:12:25;;;;;;;;;35.75;27.75;;;;;5.68;68.87;103276.78;5051026;28;45502;-79
2022/01/18 04:14:51;;;;;;;;;34.25;29.25;;;;;5.41;69.06;103213.53;5051557;28;46238;-79
2022/01/18 04:28:03;;;;;;;;;36.00;30.50;;;;;5.95;68.42;103293.22;5052083;28;46006;-78
2022/01/18 04:30:28;;;;;;;;;31.25;27.25;;;;;5.88;68.18;103273.69;5051532;28;45829;-78
2022/01/18 04:32:54;;;;;;;;;33.75;28.75;;;;;5.64;68.33;103218.47;5033581;28;45994;-78
2022/01/18 04:35:19;;;;;;;;;29.00;23.25;;;;;6.18;68.62;103319.78;5033016;28;45572;-78
2022/01/18 04:37:45;;;;;;;;;34.50;27.00;;;;;6.31;68.61;103340.53;5050473;28;46266;-81
2022/01/18 04:40:17;;;;;;;;;36.25;28.00;;;;;6.19;68.50;103316.34;5051415;28;45786;-79
2022/01/18 04:43:08;;;;;;;;;30.25;26.00;;;;;6.14;68.91;103329.97;5049961;28;45565;-78
2022/01/18 04:50:50;;;;;;;;;35.25;28.75;;;;;6.23;68.91;103314.03;5050599;28;45533;-77
2022/01/18 04:53:16;;;;;;;;;35.50;25.25;;;;;6.31;68.53;103325.81;5049576;28;46062;-79
2022/01/18 04:55:42;;;;;;;;;30.00;27.50;;;;;5.51;68.41;103179.53;5032304;28;47127;-74
2022/01/18 04:58:08;;;;;;;;;38.50;30.50;;;;;5.43;68.01;103180.75;5051092;28;46162;-75
2022/01/18 05:00:34;;;;;;;;;32.00;27.25;;;;;5.98;67.85;103262.22;5051093;28;45559;-78
2022/01/18 05:03:00;;;;;;;;;36.25;29.50;;;;;5.47;68.61;103181.03;5051388;28;45435;-77
2022/01/18 05:05:28;;;;;;;;;21.25;20.50;;;;;5.95;68.04;103260.28;5051708;28;45504;-76
2022/01/18 05:07:59;;;;;;;;;31.00;21.25;;;;;6.25;68.19;103315.03;5035728;28;45550;-78
2022/01/18 05:10:27;;;;;;;;;30.75;27.25;;;;;5.90;68.09;103250.38;5034778;28;45513;-77
2022/01/18 05:12:55;;;;;;;;;34.25;27.75;;;;;5.74;68.28;103214.72;5054603;28;45819;-76
2022/01/18 05:18:13;;;;;;;;;30.25;23.75;;;;;5.79;67.85;103222.81;5055101;28;46198;-76
2022/01/18 05:20:56;;;;;;;;;35.25;25.75;;;;;6.01;67.88;103277.13;5054549;28;45562;-77
2022/01/18 05:23:22;;;;;;;;;43.25;31.00;;;;;6.41;68.58;103335.09;5051759;28;45669;-77
2022/01/18 05:25:48;;;;;;;;;37.75;25.00;;;;;5.92;68.40;103269.59;5032124;28;47037;-78
2022/01/18 05:28:13;;;;;;;;;30.50;26.00;;;;;5.67;67.69;103215.16;5050616;28;46066;-78
2022/01/18 05:30:40;;;;;;;;;42.00;34.75;;;;;6.23;68.48;103321.84;5052599;28;46125;-76
2022/01/18 05:33:06;;;;;;;;;39.25;29.75;;;;;6.38;68.08;103342.69;5053754;28;45624;-79
2022/01/18 05:35:33;;;;;;;;;33.25;24.75;;;;;5.52;67.98;103182.22;5050489;28;45916;-75
2022/01/18 05:37:59;;;;;;;;;37.50;29.50;;;;;6.39;68.47;103333.19;5056210;28;45482;-76
2022/01/18 05:40:25;;;;;;;;;38.50;31.00;;;;;5.50;68.55;103190.72;5054912;28;45414;-75
2022/01/18 05:42:50;;;;;;;;;34.50;27.25;;;;;6.34;68.48;103343.34;5034037;28;45441;-77
2022/01/18 05:45:17;;;;;;;;;33.75;26.75;;;;;6.32;68.86;103326.72;5055314;28;45936;-76
2022/01/18 05:47:43;;;;;;;;;37.75;28.75;;;;;6.16;68.43;103294.53;5052239;28;45963;-76
2022/01/18 05:50:10;;;;;;;;;34.50;23.50;;;;;5.92;68.40;103252.28;5055982;28;45576;-77
2022/01/18 05:52:36;;;;;;;;;37.75;30.25;;;;;5.72;68.47;103250.16;5036277;28;45527;-75
2022/01/18 05:55:03;;;;;;;;;40.50;34.25;;;;;5.25;69.19;103172.72;5054334;28;46394;-75
2022/01/18 05:57:29;;;;;;;;;43.25;32.00;;;;;5.90;69.50;103298.09;5056182;28;45435;-78
2022/01/18 06:00:02;;;;;;;;;47.25;36.75;;;;;6.03;69.47;103319.75;5055092;28;45960;-76
2022/01/18 06:02:41;;;;;;;;;46.00;32.00;;;;;6.04;69.23;103314.59;5056225;28;45470;-80
2022/01/18 06:07:54;;;;;;;;;36.75;32.00;;;;;5.88;69.71;103323.13;5061436;28;45545;-75
2022/01/18 06:10:19;;;;;;;;;43.25;33.00;;;;;5.06;69.82;103207.91;5044550;28;45557;-75
2022/01/18 06:12:45;;;;;;;;;36.00;27.75;;;;;5.72;69.78;103320.38;5058202;28;45269;-75
2022/01/18 06:15:11;;;;;;;;;40.75;34.75;;;;;5.50;70.38;103303.41;5053584;28;45881;-75
2022/01/18 06:17:38;;;;;;;;;29.75;24.50;;;;;5.64;70.16;103339.78;5049879;28;45537;-76
2022/01/18 06:20:05;;;;;;;;;25.75;24.00;;;;;5.13;70.22;103240.38;5050856;28;45601;-75
2022/01/18 06:22:31;;;;;;;;;28.75;24.75;;;;;4.96;70.14;103215.94;5036278;28;45679;-75
2022/01/18 06:24:57;;;;;;;;;27.25;19.50;;;;;5.30;70.10;103283.94;5055730;28;45587;-74
2022/01/18 06:27:22;;;;;;;;;23.75;22.50;;;;;5.60;70.47;103332.56;5054640;28;46043;-77
2022/01/18 06:29:48;;;;;;;;;25.50;21.25;;;;;5.59;70.44;103333.41;5051235;28;45488;-76
2022/01/18 06:32:14;;;;;;;;;24.00;22.75;;;;;5.06;70.85;103228.69;5050896;28;45571;-76
2022/01/18 06:34:40;;;;;;;;;25.75;20.50;;;;;5.67;70.43;103335.69;5049619;28;46326;-75
2022/01/18 06:37:07;;;;;;;;;27.50;23.00;;;;;5.72;69.67;103326.47;5050981;28;45637;-77
2022/01/18 06:39:33;;;;;;;;;28.00;21.00;;;;;5.76;70.19;103339.66;5050255;28;46452;-75
2022/01/18 06:41:59;;;;;;;;;25.00;21.75;;;;;5.79;70.34;103321.63;5048999;28;45950;-79
2022/01/18 06:44:25;;;;;;;;;24.50;20.75;;;;;5.01;69.61;103209.31;5049131;28;45897;-75
2022/01/18 06:46:52;;;;;;;;;42.75;32.25;;;;;5.84;70.05;103338.47;5048777;28;45707;-75
2022/01/18 06:49:17;;;;;;;;;20.50;12.50;;;;;5.84;69.93;103333.25;5049689;28;45503;-75
2022/01/18 06:51:43;;;;;;;;;29.00;24.25;;;;;5.42;69.26;103263.03;5050406;28;45769;-75
2022/01/18 06:54:14;;;;;;;;;27.75;24.25;;;;;5.66;69.05;103293.97;5049541;28;45568;-77
2022/01/18 06:56:43;;;;;;;;;24.75;19.25;;;;;5.53;69.27;103279.31;5053817;28;45828;-77
2022/01/18 06:59:09;;;;;;;;;30.00;23.25;;;;;4.86;68.89;103158.97;5053226;28;45511;-77
2022/01/18 07:01:35;;;;;;;;;21.25;20.50;;;;;5.81;69.25;103325.25;5047650;28;45562;-77
2022/01/18 07:04:00;;;;;;;;;29.75;24.75;;;;;5.95;69.31;103346.13;5050943;28;45731;-78
2022/01/18 07:06:27;;;;;;;;;30.50;22.75;;;;;4.89;68.94;103144.50;5048212;28;45463;-77
2022/01/18 07:08:52;;;;;;;;;27.25;22.50;;;;;5.43;68.79;103236.22;5049890;28;45906;-77
2022/01/18 07:11:19;;;;;;;;;37.75;27.25;;;;;5.47;69.17;103242.53;5050331;28;45570;-79
2022/01/18 07:13:45;;;;;;;;;27.50;24.75;;;;;5.27;68.52;103215.28;5050292;28;45755;-78
2022/01/18 07:16:11;;;;;;;;;27.75;22.25;;;;;5.67;68.90;103281.09;5051179;28;45531;-79
2022/01/18 07:18:37;;;;;;;;;31.50;25.75;;;;;5.56;68.41;103250.00;5053047;28;45703;-79
2022/01/18 07:21:03;;;;;;;;;26.00;21.75;;;;;6.02;68.65;103331.81;5060018;28;45591;-77
2022/01/18 07:23:29;;;;;;;;;24.75;19.25;;;;;5.59;68.64;103252.78;5055619;28;46304;-78
2022/01/18 07:25:54;;;;;;;;;25.25;24.25;;;;;5.82;68.24;103296.75;5056759;28;45461;-76
2022/01/18 07:28:20;;;;;;;;;27.75;24.25;;;;;6.06;68.61;103331.22;5057668;28;45821;-75
2022/01/18 07:30:49;;;;;;;;;38.50;26.00;;;;;5.49;68.29;103236.63;5052224;28;45458;-78
2022/01/18 07:33:17;;;;;;;;;29.25;24.00;;;;;5.48;67.98;103221.84;5050316;28;46022;-77
2022/01/18 07:35:44;;;;;;;;;20.75;18.00;;;;;5.55;67.99;103228.28;5050622;28;45587;-76
2022/01/18 07:38:12;;;;;;;;;25.25;20.00;;;;;5.47;68.41;103207.03;5050282;28;45553;-75
2022/01/18 07:40:41;;;;;;;;;25.50;22.00;;;;;6.17;68.00;103321.47;5049891;28;45600;-75
2022/01/18 07:43:07;;;;;;;;;29.75;26.00;;;;;5.61;68.52;103209.59;5048342;28;45934;-74
2022/01/18 07:45:33;;;;;;;;;24.25;22.50;;;;;6.19;67.83;103316.34;5047116;28;46095;-74
2022/01/18 07:47:58;;;;;;;;;29.50;25.00;;;;;5.31;68.03;103173.09;5047587;28;45966;-75
2022/01/18 07:50:25;;;;;;;;;20.75;18.50;;;;;5.48;68.44;103195.84;5048742;28;45811;-73
2022/01/18 07:52:51;;;;;;;;;27.50;23.00;;;;;5.65;67.73;103227.19;5048015;28;45958;-77
2022/01/18 07:55:16;;;;;;;;;29.25;24.75;;;;;6.01;68.15;103291.00;5047965;28;45930;-75
2022/01/18 07:57:43;;;;;;;;;32.25;25.00;;;;;6.26;67.75;103324.63;5048473;28;45736;-75
2022/01/18 08:00:14;;;;;;;;;33.50;26.25;;;;;6.22;68.15;103325.25;5050116;28;46007;-77
2022/01/18 08:02:41;;;;;;;;;32.75;26.00;;;;;6.24;68.41;103323.66;5049574;28;46073;-78
2022/01/18 08:05:08;;;;;;;;;35.50;30.25;;;;;6.28;67.68;103324.72;5049858;28;45444;-76
2022/01/18 08:07:34;;;;;;;;;42.75;32.25;;;;;6.11;67.90;103318.50;5049580;28;45449;-77
2022/01/18 08:10:00;;;;;;;;;33.50;30.75;;;;;5.91;68.96;103276.50;5050701;28;46300;-77
2022/01/18 08:12:26;;;;;;;;;40.50;29.25;;;;;5.72;68.29;103227.66;5050298;28;46251;-78
2022/01/18 08:14:55;;;;;;;;;34.00;30.00;;;;;5.99;68.35;103270.91;5052149;28;45551;-79
2022/01/18 08:17:22;;;;;;;;;40.50;32.75;;;;;6.23;68.30;103308.81;5050976;28;45901;-77
2022/01/18 08:19:48;;;;;;;;;42.75;34.25;;;;;6.25;68.34;103308.94;5051800;28;45953;-77
2022/01/18 08:22:15;;;;;;;;;40.50;32.25;;;;;6.09;68.12;103275.88;5051825;28;45891;-79
2022/01/18 08:24:41;;;;;;;;;41.00;31.75;;;;;6.16;68.08;103306.66;5052111;28;45954;-77
2022/01/18 08:27:07;;;;;;;;;36.00;31.25;;;;;6.16;68.82;103306.66;5053371;28;45726;-79
2022/01/18 08:29:35;;;;;;;;;40.25;32.75;;;;;6.22;68.59;103298.34;5053716;28;45700;-78
2022/01/18 08:32:00;;;;;;;;;42.75;32.50;;;;;6.30;68.06;103307.50;5051833;28;46585;-76
2022/01/18 08:34:26;;;;;;;;;35.25;31.00;;;;;5.99;68.05;103237.97;5051386;28;45882;-76
2022/01/18 08:36:52;;;;;;;;;40.00;32.50;;;;;6.36;68.11;103303.56;5051895;28;45481;-78
2022/01/18 08:39:18;;;;;;;;;39.75;32.50;;;;;5.88;67.42;103194.78;5052069;28;45730;-79
2022/01/18 08:41:45;;;;;;;;;42.50;33.00;;;;;5.85;67.57;103161.66;5051470;28;46517;-78
2022/01/18 08:44:10;;;;;;;;;32.75;26.00;;;;;6.90;66.30;103264.16;5052130;28;45795;-77
2022/01/18 08:46:36;;;;;;;;;31.75;25.75;;;;;6.30;66.17;103162.63;5051864;28;46152;-77
2022/01/18 08:49:05;;;;;;;;;30.75;25.75;;;;;6.93;66.20;103274.78;5050522;28;45728;-78
2022/01/18 08:51:31;;;;;;;;;28.75;23.75;;;;;7.30;66.13;103310.72;5052248;28;46057;-78
2022/01/18 08:53:57;;;;;;;;;26.50;21.50;;;;;7.38;65.71;103302.53;5051995;28;45889;-76
2022/01/18 08:56:23;;;;;;;;;33.00;23.50;;;;;7.68;65.39;103311.97;5052742;28;45932;-78
2022/01/18 08:58:49;;;;;;;;;33.75;25.25;;;;;7.88;64.63;103306.16;5053993;28;45471;-78
2022/01/18 09:01:16;;;;;;;;;30.00;23.75;;;;;8.00;64.26;103309.41;5052618;28;46632;-77
2022/01/18 09:03:41;;;;;;;;;30.50;21.75;;;;;8.31;64.37;103292.75;5052030;28;45425;-78
2022/01/18 09:06:07;;;;;;;;;31.50;26.25;;;;;11.01;60.09;103292.31;5035208;28;46414;-76
2022/01/18 09:08:37;;;;;;;;;28.00;23.25;;;;;13.72;52.30;103244.91;5032642;28;46143;-78
2022/01/18 09:11:04;;;;;;;;;32.25;27.25;;;;;15.92;47.31;103252.06;5045230;28;46118;-76
2022/01/18 09:13:34;;;;;;;;;30.75;27.00;;;;;17.34;43.13;103266.88;5032443;28;45471;-78
2022/01/18 09:16:00;;;;;;;;;31.50;27.00;;;;;17.69;40.23;103139.25;5047905;28;45538;-78
2022/01/18 09:18:26;;;;;;;;;29.75;26.00;;;;;19.87;37.96;103263.88;5050505;28;45969;-77
2022/01/18 09:20:51;;;;;;;;;22.25;19.50;;;;;20.93;36.45;103192.09;5050088;28;46019;-75
2022/01/18 09:23:17;;;;;;;;;22.25;21.75;;;;;22.22;34.23;103228.00;5053472;28;45889;-75
2022/01/18 09:25:43;;;;;;;;;27.33;21.00;;;;;23.43;32.33;103261.59;5045708;28;45534;-80
2022/01/18 09:28:09;;;;;;;;;28.00;23.00;;;;;24.20;31.13;103252.56;5063933;28;45525;-82
2022/01/18 09:30:35;;;;;;;;;25.33;22.00;;;;;24.80;30.25;103227.50;5059818;28;45959;-78
2022/01/18 09:33:04;;;;;;;;;24.33;20.00;;;;;25.20;28.78;103194.59;5056226;28;45735;-79
2022/01/18 09:35:30;;;;;;;;;21.33;19.33;;;;;25.49;27.50;103160.88;5056135;28;45539;-77
2022/01/18 09:37:55;;;;;;;;;28.00;22.33;;;;;25.62;27.72;103173.09;5040444;28;45524;-78
2022/01/18 09:40:23;;;;;;;;;22.33;20.00;;;;;25.68;27.85;103150.63;5061932;28;46194;-79
2022/01/18 09:42:54;;;;;;;;;20.67;18.00;;;;;26.38;27.38;103209.78;5045390;28;45320;-80
2022/01/18 09:45:20;;;;;;;;;27.00;21.33;;;;;27.39;26.53;103235.78;5059028;28;45742;-75
2022/01/18 09:47:49;;;;;;;;;24.00;19.67;;;;;27.65;25.99;103191.94;5057166;28;45691;-79
2022/01/18 09:50:21;;;;;;;;;24.67;23.67;;;;;27.34;24.25;103157.88;5056100;28;45674;-78
2022/01/18 09:52:51;;;;;;;;;30.33;23.67;;;;;27.22;25.08;103163.63;5055367;28;45557;-75
2022/01/18 09:55:17;;;;;;;;;24.00;23.00;;;;;27.41;24.36;103172.03;5055262;28;45542;-77
2022/01/18 09:57:43;;;;;;;;;28.00;23.67;;;;;27.55;24.41;103214.66;5055564;28;45385;-73
2022/01/18 10:00:09;;;;;;;;;27.00;23.33;;;;;27.30;24.08;103255.75;5056719;28;45458;-80
2022/01/18 10:02:35;;;;;;;;;25.33;22.00;;;;;27.06;24.63;103166.72;5057284;28;45419;-77
2022/01/18 10:05:17;;;;;;;;;33.00;23.33;;;;;27.55;24.22;103218.25;5055147;28;45516;-78
2022/01/18 10:07:43;;;;;;;;;30.00;24.33;;;;;27.39;24.28;103252.81;5061094;28;45302;-78
2022/01/18 10:10:10;;;;;;;;;22.67;21.00;;;;;26.78;24.41;103133.50;5055137;28;45474;-77
2022/01/18 10:12:35;;;;;;;;;29.33;23.67;;;;;26.90;24.04;103130.44;5057878;28;45524;-78
2022/01/18 10:15:04;;;;;;;;;25.67;20.33;;;;;27.94;23.33;103209.00;5057084;28;45480;-77
2022/01/18 10:17:32;;;;;;;;;23.33;21.33;;;;;27.17;23.35;103125.16;5056828;28;45454;-77
2022/01/18 10:20:18;;;;;;;;;28.67;22.33;;;;;28.17;23.05;103202.88;5058674;28;45658;-79
2022/01/18 10:22:49;;;;;;;;;26.67;22.33;;;;;27.05;24.02;103143.47;5061345;28;45303;-78
2022/01/18 10:25:21;;;;;;;;;25.67;23.33;;;;;27.33;23.69;103200.97;5055755;28;45391;-78
2022/01/18 10:27:51;;;;;;;;;24.33;21.00;;;;;27.97;23.68;103198.13;5058809;28;45739;-78
2022/01/18 10:30:32;;;;;;;;;28.67;22.33;;;;;27.88;23.07;103228.91;5060047;28;46222;-78
2022/01/18 10:33:11;;;;;;;;;26.33;24.00;;;;;27.26;23.50;103165.28;5060319;28;45228;-77
2022/01/18 10:36:03;;;;;;;;;24.33;22.33;;;;;27.18;23.83;103145.78;5056000;28;45427;-79
2022/01/18 10:38:29;;;;;;;;;24.00;18.33;;;;;26.86;23.82;103118.00;5057643;28;45310;-77
2022/01/18 10:40:55;;;;;;;;;26.00;21.33;;;;;26.98;24.35;103186.69;5057599;28;45452;-82
2022/01/18 10:43:29;;;;;;;;;25.67;18.00;;;;;26.96;24.17;103210.97;5056375;28;45846;-78
2022/01/18 10:46:15;;;;;;;;;25.67;22.67;;;;;26.30;23.95;103081.03;5055818;28;45480;-78
2022/01/18 10:48:48;;;;;;;;;23.00;21.00;;;;;26.76;24.35;103111.16;5038136;28;45261;-76
2022/01/18 10:51:32;;;;;;;;;24.00;19.67;;;;;27.97;23.50;103188.22;5054421;28;45345;-74
2022/01/18 10:54:05;;;;;;;;;20.67;17.33;;;;;28.19;23.54;103179.41;5055074;28;45374;-77
2022/01/18 10:56:39;;;;;;;;;27.67;21.67;;;;;28.52;22.99;103174.72;5057397;28;45763;-80
2022/01/18 10:59:05;;;;;;;;;22.00;17.00;;;;;28.66;23.07;103179.63;5061214;28;45422;-79
2022/01/18 11:01:31;;;;;;;;;20.33;17.33;;;;;27.78;22.40;103063.16;5065576;28;45433;-80
2022/01/18 11:04:12;;;;;;;;;22.33;21.33;;;;;28.59;22.36;103162.78;5063963;28;45422;-71
2022/01/18 11:06:42;;;;;;;;;23.33;19.00;;;;;27.98;22.86;103163.06;5060343;28;45394;-73
2022/01/18 11:09:10;;;;;;;;;17.00;14.67;;;;;27.77;22.65;103158.34;5041351;28;45359;-71
2022/01/18 11:11:42;;;;;;;;;17.67;15.00;;;;;27.36;23.17;103086.06;5056130;28;45570;-72
2022/01/18 11:14:09;;;;;;;;;19.33;19.33;;;;;27.27;22.85;103134.78;5054158;28;45438;-72
2022/01/18 11:16:41;;;;;;;;;21.33;17.00;;;;;27.62;23.10;103122.91;5054014;28;45497;-72
2022/01/18 11:19:16;;;;;;;;;20.00;15.33;;;;;27.12;23.00;103148.66;5053953;28;45540;-69
2022/01/18 11:21:44;;;;;;;;;17.33;14.33;;;;;27.07;22.96;103146.09;5053611;28;45496;-70
2022/01/18 11:24:10;;;;;;;;;19.67;14.00;;;;;27.70;22.96;103133.44;5035535;28;45474;-72
2022/01/18 11:26:38;;;;;;;;;19.33;15.33;;;;;28.49;22.02;103134.38;5054214;28;45407;-71
2022/01/18 11:29:05;;;;;;;;;21.67;15.33;;;;;28.43;21.91;103115.72;5054055;28;45539;-70
2022/01/18 11:31:31;;;;;;;;;19.00;14.00;;;;;27.09;22.05;103120.03;5054030;28;45449;-70
2022/01/18 11:33:59;;;;;;;;;14.00;13.67;;;;;27.53;22.10;103104.38;5053970;28;45961;-70
2022/01/18 11:36:32;;;;;;;;;16.67;14.33;;;;;27.69;21.83;103053.56;5053639;28;45552;-72
2022/01/18 11:39:03;;;;;;;;;15.00;15.00;;;;;27.78;22.09;103088.28;5052033;28;45464;-71
2022/01/18 11:41:31;;;;;;;;;18.33;14.67;;;;;24.67;25.02;103094.63;5053521;28;45563;-70
2022/01/18 11:43:59;;;;;;;;;13.00;12.67;;;;;21.67;28.65;103094.97;5056867;28;45339;-68
2022/01/18 11:46:35;;;;;;;;;15.33;10.00;;;;;19.11;32.22;103098.78;5053238;28;45398;-68
2022/01/18 11:49:14;;;;;;;;;15.33;12.33;;;;;17.53;35.44;103088.72;5057412;28;45359;-68
2022/01/18 11:51:48;;;;;;;;;20.33;15.33;;;;;17.53;35.76;103093.13;5056842;28;46043;-68
2022/01/18 11:54:39;;;;;;;;;10.00;9.67;;;;;19.25;33.65;103073.16;5056253;28;45484;-69
2022/01/18 11:57:27;;;;;;;;;12.33;11.67;;;;;22.01;29.75;103085.78;5058339;28;45423;-69
2022/01/18 12:00:12;;;;;;;;;15.67;14.33;;;;;23.69;26.96;103074.00;5061622;28;45387;-69
2022/01/18 12:02:42;;;;;;;;;13.00;10.67;;;;;23.50;26.08;103073.41;5056764;28;46154;-71
2022/01/18 12:05:19;;;;;;;;;11.33;8.33;;;;;23.38;26.90;103070.91;5056729;28;45502;-70
2022/01/18 12:07:44;;;;;;;;;14.00;13.00;;;;;22.76;27.05;103070.81;5056451;28;45468;-69
2022/01/18 12:10:37;;;;;;;;;12.00;10.00;;;;;21.17;29.22;103065.03;5056685;28;45726;-71
2022/01/18 12:13:11;;;;;;;;;12.00;8.67;;;;;19.04;31.41;103013.75;5056823;28;45353;-69
2022/01/18 12:15:38;;;;;;;;;12.33;9.00;;;;;17.41;34.31;103058.56;5041233;28;45415;-71
2022/01/18 12:18:13;;;;;;;;;11.00;10.33;;;;;15.85;36.83;103052.84;5038265;28;45546;-70
2022/01/18 12:20:44;;;;;;;;;9.00;9.00;;;;;15.09;38.91;103036.44;5059015;28;45387;-70